sensor_id;sensor_type;location;lat;lon;timestamp;P1;durP1;ratioP1;P2;durP2;ratioP2
22336;SDS011;14992;50.844;4.418;2023-04-03T00:01:39;7.10;;;4.70;;
22336;SDS011;14992;50.844;4.418;2023-04-03T00:04:08;7.40;;;4.72;;
22336;SDS011;14992;50.844;4.418;2023-04-03T00:06:37;8.00;;;4.85;;
22336;SDS011;14992;50.844;4.418;2023-04-03T00:09:06;7.47;;;4.82;;
22336;SDS011;14992;50.844;4.418;2023-04-03T00:11:37;7.80;;;5.00;;
22336;SDS011;14992;50.844;4.418;2023-04-03T00:14:09;6.82;;;5.28;;
22336;SDS011;14992;50.844;4.418;2023-04-03T00:16:38;8.48;;;5.05;;
22336;SDS011;14992;50.844;4.418;2023-04-03T00:19:07;7.60;;;5.00;;
22336;SDS011;14992;50.844;4.418;2023-04-03T00:21:38;8.05;;;5.20;;
22336;SDS011;14992;50.844;4.418;2023-04-03T00:24:08;8.38;;;5.20;;
22336;SDS011;14992;50.844;4.418;2023-04-03T00:26:38;9.38;;;5.15;;
22336;SDS011;14992;50.844;4.418;2023-04-03T00:29:07;7.65;;;5.22;;
22336;SDS011;14992;50.844;4.418;2023-04-03T00:31:36;9.95;;;4.97;;
22336;SDS011;14992;50.844;4.418;2023-04-03T00:34:05;9.07;;;5.80;;
22336;SDS011;14992;50.844;4.418;2023-04-03T00:36:34;8.88;;;5.72;;
22336;SDS011;14992;50.844;4.418;2023-04-03T00:39:02;6.20;;;4.85;;
22336;SDS011;14992;50.844;4.418;2023-04-03T00:41:33;7.40;;;5.10;;
22336;SDS011;14992;50.844;4.418;2023-04-03T00:46:59;7.25;;;5.03;;
22336;SDS011;14992;50.844;4.418;2023-04-03T00:49:30;8.07;;;5.03;;
22336;SDS011;14992;50.844;4.418;2023-04-03T00:52:00;6.25;;;4.63;;
22336;SDS011;14992;50.844;4.418;2023-04-03T00:54:29;8.20;;;4.70;;
22336;SDS011;14992;50.844;4.418;2023-04-03T00:56:58;7.50;;;5.03;;
22336;SDS011;14992;50.844;4.418;2023-04-03T00:59:29;7.25;;;4.72;;
22336;SDS011;14992;50.844;4.418;2023-04-03T01:02:03;8.98;;;4.55;;
22336;SDS011;14992;50.844;4.418;2023-04-03T01:04:33;8.73;;;4.28;;
22336;SDS011;14992;50.844;4.418;2023-04-03T01:07:05;9.80;;;5.22;;
22336;SDS011;14992;50.844;4.418;2023-04-03T01:09:36;8.18;;;4.25;;
22336;SDS011;14992;50.844;4.418;2023-04-03T01:12:13;6.47;;;4.18;;
22336;SDS011;14992;50.844;4.418;2023-04-03T01:14:44;8.32;;;4.95;;
22336;SDS011;14992;50.844;4.418;2023-04-03T01:17:27;7.70;;;5.10;;
22336;SDS011;14992;50.844;4.418;2023-04-03T01:20:03;6.47;;;4.55;;
22336;SDS011;14992;50.844;4.418;2023-04-03T01:22:54;7.85;;;4.93;;
22336;SDS011;14992;50.844;4.418;2023-04-03T01:25:27;8.38;;;4.78;;
22336;SDS011;14992;50.844;4.418;2023-04-03T01:27:58;6.25;;;4.30;;
22336;SDS011;14992;50.844;4.418;2023-04-03T01:30:30;8.48;;;4.28;;
22336;SDS011;14992;50.844;4.418;2023-04-03T01:33:03;6.25;;;4.63;;
22336;SDS011;14992;50.844;4.418;2023-04-03T01:35:32;6.25;;;4.53;;
22336;SDS011;14992;50.844;4.418;2023-04-03T01:38:01;6.90;;;4.70;;
22336;SDS011;14992;50.844;4.418;2023-04-03T01:40:30;8.43;;;5.18;;
22336;SDS011;14992;50.844;4.418;2023-04-03T01:42:58;9.18;;;4.45;;
22336;SDS011;14992;50.844;4.418;2023-04-03T01:45:27;8.88;;;4.70;;
22336;SDS011;14992;50.844;4.418;2023-04-03T01:47:57;6.60;;;4.50;;
22336;SDS011;14992;50.844;4.418;2023-04-03T01:50:27;9.18;;;5.28;;
22336;SDS011;14992;50.844;4.418;2023-04-03T01:52:56;10.73;;;4.78;;
22336;SDS011;14992;50.844;4.418;2023-04-03T01:55:25;6.32;;;4.20;;
22336;SDS011;14992;50.844;4.418;2023-04-03T01:57:55;7.95;;;5.50;;
22336;SDS011;14992;50.844;4.418;2023-04-03T02:00:23;5.90;;;4.32;;
22336;SDS011;14992;50.844;4.418;2023-04-03T02:02:53;8.40;;;4.95;;
22336;SDS011;14992;50.844;4.418;2023-04-03T02:05:22;6.75;;;4.82;;
22336;SDS011;14992;50.844;4.418;2023-04-03T02:07:53;7.78;;;4.90;;
22336;SDS011;14992;50.844;4.418;2023-04-03T02:10:22;5.65;;;4.43;;
22336;SDS011;14992;50.844;4.418;2023-04-03T02:12:51;8.48;;;4.57;;
22336;SDS011;14992;50.844;4.418;2023-04-03T02:15:20;9.50;;;5.05;;
22336;SDS011;14992;50.844;4.418;2023-04-03T02:17:48;6.40;;;4.90;;
22336;SDS011;14992;50.844;4.418;2023-04-03T02:20:18;8.15;;;5.07;;
22336;SDS011;14992;50.844;4.418;2023-04-03T02:22:47;7.30;;;4.82;;
22336;SDS011;14992;50.844;4.418;2023-04-03T02:25:18;6.22;;;4.60;;
22336;SDS011;14992;50.844;4.418;2023-04-03T02:27:48;5.03;;;4.10;;
22336;SDS011;14992;50.844;4.418;2023-04-03T02:30:17;8.05;;;4.95;;
22336;SDS011;14992;50.844;4.418;2023-04-03T02:32:46;6.78;;;4.82;;
22336;SDS011;14992;50.844;4.418;2023-04-03T02:35:15;7.10;;;4.93;;
22336;SDS011;14992;50.844;4.418;2023-04-03T02:37:44;7.25;;;5.00;;
22336;SDS011;14992;50.844;4.418;2023-04-03T02:40:13;7.65;;;5.45;;
22336;SDS011;14992;50.844;4.418;2023-04-03T02:42:44;8.57;;;5.30;;
22336;SDS011;14992;50.844;4.418;2023-04-03T02:45:13;8.52;;;5.15;;
22336;SDS011;14992;50.844;4.418;2023-04-03T02:47:42;8.07;;;4.97;;
22336;SDS011;14992;50.844;4.418;2023-04-03T02:50:11;9.40;;;5.90;;
22336;SDS011;14992;50.844;4.418;2023-04-03T02:52:40;9.20;;;5.05;;
22336;SDS011;14992;50.844;4.418;2023-04-03T02:55:09;9.38;;;4.90;;
22336;SDS011;14992;50.844;4.418;2023-04-03T02:57:45;5.70;;;4.70;;
22336;SDS011;14992;50.844;4.418;2023-04-03T03:00:14;6.30;;;4.93;;
22336;SDS011;14992;50.844;4.418;2023-04-03T03:02:43;7.97;;;4.78;;
22336;SDS011;14992;50.844;4.418;2023-04-03T03:05:13;6.55;;;4.68;;
22336;SDS011;14992;50.844;4.418;2023-04-03T03:07:42;10.40;;;6.75;;
22336;SDS011;14992;50.844;4.418;2023-04-03T03:10:11;8.15;;;4.75;;
22336;SDS011;14992;50.844;4.418;2023-04-03T03:12:39;7.43;;;4.78;;
22336;SDS011;14992;50.844;4.418;2023-04-03T03:15:10;7.07;;;4.65;;
22336;SDS011;14992;50.844;4.418;2023-04-03T03:17:39;9.85;;;5.10;;
22336;SDS011;14992;50.844;4.418;2023-04-03T03:20:09;8.82;;;4.85;;
22336;SDS011;14992;50.844;4.418;2023-04-03T03:22:41;7.03;;;5.18;;
22336;SDS011;14992;50.844;4.418;2023-04-03T03:25:10;7.40;;;5.20;;
22336;SDS011;14992;50.844;4.418;2023-04-03T03:27:38;7.85;;;5.53;;
22336;SDS011;14992;50.844;4.418;2023-04-03T03:30:09;10.35;;;5.15;;
22336;SDS011;14992;50.844;4.418;2023-04-03T03:32:38;8.13;;;5.05;;
22336;SDS011;14992;50.844;4.418;2023-04-03T03:35:08;9.15;;;4.70;;
22336;SDS011;14992;50.844;4.418;2023-04-03T03:37:37;8.20;;;5.18;;
22336;SDS011;14992;50.844;4.418;2023-04-03T03:40:06;8.13;;;4.68;;
22336;SDS011;14992;50.844;4.418;2023-04-03T03:42:37;6.75;;;4.60;;
22336;SDS011;14992;50.844;4.418;2023-04-03T03:45:06;7.10;;;5.53;;
22336;SDS011;14992;50.844;4.418;2023-04-03T03:47:37;7.35;;;4.60;;
22336;SDS011;14992;50.844;4.418;2023-04-03T03:50:08;8.85;;;5.28;;
22336;SDS011;14992;50.844;4.418;2023-04-03T03:52:37;9.43;;;5.40;;
22336;SDS011;14992;50.844;4.418;2023-04-03T03:55:07;10.50;;;5.28;;
22336;SDS011;14992;50.844;4.418;2023-04-03T03:57:36;9.30;;;5.38;;
22336;SDS011;14992;50.844;4.418;2023-04-03T04:00:06;10.88;;;6.00;;
22336;SDS011;14992;50.844;4.418;2023-04-03T04:02:42;10.23;;;5.55;;
22336;SDS011;14992;50.844;4.418;2023-04-03T04:05:15;6.60;;;4.80;;
22336;SDS011;14992;50.844;4.418;2023-04-03T04:07:44;11.48;;;5.82;;
22336;SDS011;14992;50.844;4.418;2023-04-03T04:10:14;6.95;;;5.13;;
22336;SDS011;14992;50.844;4.418;2023-04-03T04:12:44;8.88;;;5.55;;
22336;SDS011;14992;50.844;4.418;2023-04-03T04:15:13;5.97;;;4.88;;
22336;SDS011;14992;50.844;4.418;2023-04-03T04:17:44;10.20;;;5.78;;
22336;SDS011;14992;50.844;4.418;2023-04-03T04:20:13;7.90;;;5.15;;
22336;SDS011;14992;50.844;4.418;2023-04-03T04:22:42;7.55;;;5.85;;
22336;SDS011;14992;50.844;4.418;2023-04-03T04:25:11;9.13;;;5.10;;
22336;SDS011;14992;50.844;4.418;2023-04-03T04:27:40;8.82;;;5.90;;
22336;SDS011;14992;50.844;4.418;2023-04-03T04:30:12;8.32;;;5.38;;
22336;SDS011;14992;50.844;4.418;2023-04-03T04:32:46;8.57;;;5.43;;
22336;SDS011;14992;50.844;4.418;2023-04-03T04:35:15;6.78;;;5.35;;
22336;SDS011;14992;50.844;4.418;2023-04-03T04:37:47;9.60;;;5.68;;
22336;SDS011;14992;50.844;4.418;2023-04-03T04:40:17;8.05;;;6.32;;
22336;SDS011;14992;50.844;4.418;2023-04-03T04:42:46;8.60;;;6.13;;
22336;SDS011;14992;50.844;4.418;2023-04-03T04:45:15;8.63;;;5.93;;
22336;SDS011;14992;50.844;4.418;2023-04-03T04:47:47;10.80;;;5.68;;
22336;SDS011;14992;50.844;4.418;2023-04-03T04:52:48;9.20;;;5.65;;
22336;SDS011;14992;50.844;4.418;2023-04-03T04:55:17;7.88;;;5.85;;
22336;SDS011;14992;50.844;4.418;2023-04-03T04:57:46;7.72;;;5.53;;
22336;SDS011;14992;50.844;4.418;2023-04-03T05:00:16;14.80;;;7.78;;
22336;SDS011;14992;50.844;4.418;2023-04-03T05:02:46;13.73;;;8.00;;
22336;SDS011;14992;50.844;4.418;2023-04-03T05:05:18;13.50;;;7.38;;
22336;SDS011;14992;50.844;4.418;2023-04-03T05:07:47;14.20;;;7.22;;
22336;SDS011;14992;50.844;4.418;2023-04-03T05:10:16;8.63;;;5.95;;
22336;SDS011;14992;50.844;4.418;2023-04-03T05:12:46;9.93;;;6.97;;
22336;SDS011;14992;50.844;4.418;2023-04-03T05:15:16;12.13;;;6.70;;
22336;SDS011;14992;50.844;4.418;2023-04-03T05:17:49;9.70;;;6.22;;
22336;SDS011;14992;50.844;4.418;2023-04-03T05:20:18;13.65;;;7.18;;
22336;SDS011;14992;50.844;4.418;2023-04-03T05:22:48;10.57;;;6.80;;
22336;SDS011;14992;50.844;4.418;2023-04-03T05:25:17;11.10;;;7.50;;
22336;SDS011;14992;50.844;4.418;2023-04-03T05:27:46;16.48;;;7.90;;
22336;SDS011;14992;50.844;4.418;2023-04-03T05:30:16;14.00;;;7.72;;
22336;SDS011;14992;50.844;4.418;2023-04-03T05:32:47;15.20;;;7.45;;
22336;SDS011;14992;50.844;4.418;2023-04-03T05:35:21;12.48;;;7.35;;
22336;SDS011;14992;50.844;4.418;2023-04-03T05:37:54;12.25;;;7.18;;
22336;SDS011;14992;50.844;4.418;2023-04-03T05:40:23;13.70;;;7.05;;
22336;SDS011;14992;50.844;4.418;2023-04-03T05:42:55;18.17;;;9.43;;
22336;SDS011;14992;50.844;4.418;2023-04-03T05:45:27;15.00;;;8.88;;
22336;SDS011;14992;50.844;4.418;2023-04-03T05:47:57;25.75;;;9.70;;
22336;SDS011;14992;50.844;4.418;2023-04-03T05:50:28;14.70;;;8.02;;
22336;SDS011;14992;50.844;4.418;2023-04-03T05:52:58;12.75;;;7.70;;
22336;SDS011;14992;50.844;4.418;2023-04-03T05:55:31;11.90;;;8.10;;
22336;SDS011;14992;50.844;4.418;2023-04-03T05:58:01;9.73;;;8.13;;
22336;SDS011;14992;50.844;4.418;2023-04-03T06:00:30;10.90;;;7.15;;
22336;SDS011;14992;50.844;4.418;2023-04-03T06:03:01;14.43;;;7.80;;
22336;SDS011;14992;50.844;4.418;2023-04-03T06:05:32;11.30;;;7.80;;
22336;SDS011;14992;50.844;4.418;2023-04-03T06:08:02;10.95;;;7.60;;
22336;SDS011;14992;50.844;4.418;2023-04-03T06:10:32;10.15;;;7.47;;
22336;SDS011;14992;50.844;4.418;2023-04-03T06:13:01;15.43;;;7.32;;
22336;SDS011;14992;50.844;4.418;2023-04-03T06:15:30;12.75;;;7.90;;
22336;SDS011;14992;50.844;4.418;2023-04-03T06:18:00;17.95;;;7.95;;
22336;SDS011;14992;50.844;4.418;2023-04-03T06:20:29;13.27;;;7.82;;
22336;SDS011;14992;50.844;4.418;2023-04-03T06:22:59;13.88;;;8.00;;
22336;SDS011;14992;50.844;4.418;2023-04-03T06:25:29;10.48;;;7.68;;
22336;SDS011;14992;50.844;4.418;2023-04-03T06:27:58;11.68;;;6.95;;
22336;SDS011;14992;50.844;4.418;2023-04-03T06:30:27;12.00;;;7.40;;
22336;SDS011;14992;50.844;4.418;2023-04-03T06:32:56;9.30;;;7.00;;
22336;SDS011;14992;50.844;4.418;2023-04-03T06:35:26;10.60;;;7.28;;
22336;SDS011;14992;50.844;4.418;2023-04-03T06:37:57;11.80;;;7.82;;
22336;SDS011;14992;50.844;4.418;2023-04-03T06:40:27;10.05;;;7.65;;
22336;SDS011;14992;50.844;4.418;2023-04-03T06:42:56;13.75;;;7.30;;
22336;SDS011;14992;50.844;4.418;2023-04-03T06:45:25;10.27;;;7.57;;
22336;SDS011;14992;50.844;4.418;2023-04-03T06:47:54;11.10;;;7.18;;
22336;SDS011;14992;50.844;4.418;2023-04-03T06:50:23;10.32;;;6.53;;
22336;SDS011;14992;50.844;4.418;2023-04-03T06:52:52;14.48;;;9.45;;
22336;SDS011;14992;50.844;4.418;2023-04-03T06:55:22;15.05;;;9.95;;
22336;SDS011;14992;50.844;4.418;2023-04-03T06:57:52;11.18;;;7.85;;
22336;SDS011;14992;50.844;4.418;2023-04-03T07:00:21;9.63;;;7.85;;
22336;SDS011;14992;50.844;4.418;2023-04-03T07:02:50;11.68;;;6.93;;
22336;SDS011;14992;50.844;4.418;2023-04-03T07:05:19;11.85;;;7.38;;
22336;SDS011;14992;50.844;4.418;2023-04-03T07:07:48;11.20;;;6.97;;
22336;SDS011;14992;50.844;4.418;2023-04-03T07:10:18;9.80;;;7.32;;
22336;SDS011;14992;50.844;4.418;2023-04-03T07:12:47;10.38;;;7.90;;
22336;SDS011;14992;50.844;4.418;2023-04-03T07:15:17;8.73;;;7.03;;
22336;SDS011;14992;50.844;4.418;2023-04-03T07:17:46;9.55;;;6.80;;
22336;SDS011;14992;50.844;4.418;2023-04-03T07:20:15;11.43;;;7.45;;
22336;SDS011;14992;50.844;4.418;2023-04-03T07:22:44;14.23;;;7.60;;
22336;SDS011;14992;50.844;4.418;2023-04-03T07:25:13;9.82;;;6.88;;
22336;SDS011;14992;50.844;4.418;2023-04-03T07:27:43;9.55;;;6.85;;
22336;SDS011;14992;50.844;4.418;2023-04-03T07:30:12;12.85;;;7.63;;
22336;SDS011;14992;50.844;4.418;2023-04-03T07:32:43;10.40;;;6.90;;
22336;SDS011;14992;50.844;4.418;2023-04-03T07:35:12;10.73;;;6.53;;
22336;SDS011;14992;50.844;4.418;2023-04-03T07:37:42;10.00;;;7.32;;
22336;SDS011;14992;50.844;4.418;2023-04-03T07:40:11;8.05;;;6.45;;
22336;SDS011;14992;50.844;4.418;2023-04-03T07:42:40;10.60;;;6.63;;
22336;SDS011;14992;50.844;4.418;2023-04-03T07:45:09;9.57;;;6.30;;
22336;SDS011;14992;50.844;4.418;2023-04-03T07:47:39;9.25;;;6.35;;
22336;SDS011;14992;50.844;4.418;2023-04-03T07:50:10;9.60;;;6.55;;
22336;SDS011;14992;50.844;4.418;2023-04-03T07:52:39;8.80;;;7.60;;
22336;SDS011;14992;50.844;4.418;2023-04-03T07:55:08;9.68;;;6.47;;
22336;SDS011;14992;50.844;4.418;2023-04-03T07:57:37;11.02;;;6.88;;
22336;SDS011;14992;50.844;4.418;2023-04-03T08:00:07;12.10;;;8.35;;
22336;SDS011;14992;50.844;4.418;2023-04-03T08:02:40;13.02;;;6.25;;
22336;SDS011;14992;50.844;4.418;2023-04-03T08:05:11;13.10;;;7.22;;
22336;SDS011;14992;50.844;4.418;2023-04-03T08:07:40;10.25;;;7.20;;
22336;SDS011;14992;50.844;4.418;2023-04-03T08:10:09;10.05;;;6.28;;
22336;SDS011;14992;50.844;4.418;2023-04-03T08:12:38;8.60;;;5.93;;
22336;SDS011;14992;50.844;4.418;2023-04-03T08:15:08;11.55;;;7.18;;
22336;SDS011;14992;50.844;4.418;2023-04-03T08:17:37;9.77;;;6.40;;
22336;SDS011;14992;50.844;4.418;2023-04-03T08:20:06;6.80;;;5.47;;
22336;SDS011;14992;50.844;4.418;2023-04-03T08:22:37;8.20;;;6.10;;
22336;SDS011;14992;50.844;4.418;2023-04-03T08:25:06;10.10;;;7.07;;
22336;SDS011;14992;50.844;4.418;2023-04-03T08:27:36;12.23;;;6.82;;
22336;SDS011;14992;50.844;4.418;2023-04-03T08:30:05;7.57;;;5.50;;
22336;SDS011;14992;50.844;4.418;2023-04-03T08:32:36;5.57;;;3.92;;
22336;SDS011;14992;50.844;4.418;2023-04-03T08:35:05;8.88;;;5.53;;
22336;SDS011;14992;50.844;4.418;2023-04-03T08:37:34;7.47;;;6.47;;
22336;SDS011;14992;50.844;4.418;2023-04-03T08:40:06;8.55;;;5.35;;
22336;SDS011;14992;50.844;4.418;2023-04-03T08:42:42;8.57;;;4.95;;
22336;SDS011;14992;50.844;4.418;2023-04-03T08:47:51;7.68;;;4.38;;
22336;SDS011;14992;50.844;4.418;2023-04-03T08:50:29;6.97;;;5.35;;
22336;SDS011;14992;50.844;4.418;2023-04-03T08:53:02;5.68;;;4.25;;
22336;SDS011;14992;50.844;4.418;2023-04-03T08:55:37;7.18;;;5.03;;
22336;SDS011;14992;50.844;4.418;2023-04-03T08:58:11;8.50;;;5.00;;
22336;SDS011;14992;50.844;4.418;2023-04-03T09:00:44;8.32;;;4.03;;
22336;SDS011;14992;50.844;4.418;2023-04-03T09:05:47;5.97;;;3.88;;
22336;SDS011;14992;50.844;4.418;2023-04-03T09:08:21;4.60;;;3.38;;
22336;SDS011;14992;50.844;4.418;2023-04-03T09:10:58;8.23;;;4.32;;
22336;SDS011;14992;50.844;4.418;2023-04-03T09:13:35;4.82;;;4.03;;
22336;SDS011;14992;50.844;4.418;2023-04-03T09:16:15;5.35;;;3.85;;
22336;SDS011;14992;50.844;4.418;2023-04-03T09:18:56;7.32;;;3.88;;
22336;SDS011;14992;50.844;4.418;2023-04-03T09:21:31;4.78;;;3.63;;
22336;SDS011;14992;50.844;4.418;2023-04-03T09:24:05;5.13;;;3.60;;
22336;SDS011;14992;50.844;4.418;2023-04-03T09:26:39;10.50;;;3.63;;
22336;SDS011;14992;50.844;4.418;2023-04-03T09:29:14;5.03;;;3.05;;
22336;SDS011;14992;50.844;4.418;2023-04-03T09:31:46;6.45;;;2.65;;
22336;SDS011;14992;50.844;4.418;2023-04-03T09:34:19;5.47;;;2.95;;
22336;SDS011;14992;50.844;4.418;2023-04-03T09:36:52;6.45;;;2.85;;
22336;SDS011;14992;50.844;4.418;2023-04-03T09:39:22;6.88;;;3.00;;
22336;SDS011;14992;50.844;4.418;2023-04-03T09:41:59;4.22;;;2.08;;
22336;SDS011;14992;50.844;4.418;2023-04-03T09:44:30;5.32;;;2.58;;
22336;SDS011;14992;50.844;4.418;2023-04-03T09:47:00;3.80;;;2.35;;
22336;SDS011;14992;50.844;4.418;2023-04-03T09:49:47;6.22;;;2.67;;
22336;SDS011;14992;50.844;4.418;2023-04-03T09:52:19;6.03;;;2.60;;
22336;SDS011;14992;50.844;4.418;2023-04-03T09:54:51;4.22;;;2.28;;
22336;SDS011;14992;50.844;4.418;2023-04-03T09:57:22;3.28;;;2.33;;
22336;SDS011;14992;50.844;4.418;2023-04-03T10:00:00;4.47;;;2.72;;
22336;SDS011;14992;50.844;4.418;2023-04-03T10:02:35;7.90;;;2.72;;
22336;SDS011;14992;50.844;4.418;2023-04-03T10:05:25;4.00;;;1.98;;
22336;SDS011;14992;50.844;4.418;2023-04-03T10:11:08;4.28;;;1.88;;
22336;SDS011;14992;50.844;4.418;2023-04-03T10:13:51;5.47;;;1.88;;
22336;SDS011;14992;50.844;4.418;2023-04-03T10:16:27;3.55;;;2.20;;
22336;SDS011;14992;50.844;4.418;2023-04-03T10:21:57;4.03;;;1.63;;
22336;SDS011;14992;50.844;4.418;2023-04-03T10:24:33;5.28;;;1.92;;
22336;SDS011;14992;50.844;4.418;2023-04-03T10:27:08;2.95;;;1.70;;
22336;SDS011;14992;50.844;4.418;2023-04-03T10:29:45;6.40;;;2.50;;
22336;SDS011;14992;50.844;4.418;2023-04-03T10:32:25;4.30;;;2.63;;
22336;SDS011;14992;50.844;4.418;2023-04-03T10:37:41;4.03;;;2.03;;
22336;SDS011;14992;50.844;4.418;2023-04-03T10:40:24;3.75;;;1.83;;
22336;SDS011;14992;50.844;4.418;2023-04-03T10:43:02;2.30;;;1.50;;
22336;SDS011;14992;50.844;4.418;2023-04-03T10:45:43;3.58;;;1.38;;
22336;SDS011;14992;50.844;4.418;2023-04-03T10:48:23;3.20;;;2.17;;
22336;SDS011;14992;50.844;4.418;2023-04-03T10:51:00;3.95;;;1.73;;
22336;SDS011;14992;50.844;4.418;2023-04-03T10:53:37;4.20;;;1.20;;
22336;SDS011;14992;50.844;4.418;2023-04-03T10:56:13;3.72;;;2.08;;
22336;SDS011;14992;50.844;4.418;2023-04-03T10:58:48;2.08;;;1.00;;
22336;SDS011;14992;50.844;4.418;2023-04-03T11:01:22;3.40;;;1.42;;
22336;SDS011;14992;50.844;4.418;2023-04-03T11:03:56;2.85;;;1.45;;
22336;SDS011;14992;50.844;4.418;2023-04-03T11:06:28;2.38;;;0.95;;
22336;SDS011;14992;50.844;4.418;2023-04-03T11:09:05;1.55;;;1.10;;
22336;SDS011;14992;50.844;4.418;2023-04-03T11:11:40;3.45;;;1.00;;
22336;SDS011;14992;50.844;4.418;2023-04-03T11:14:11;2.38;;;0.80;;
22336;SDS011;14992;50.844;4.418;2023-04-03T11:16:48;3.15;;;1.45;;
22336;SDS011;14992;50.844;4.418;2023-04-03T11:19:26;1.35;;;1.23;;
22336;SDS011;14992;50.844;4.418;2023-04-03T11:22:03;3.70;;;1.55;;
22336;SDS011;14992;50.844;4.418;2023-04-03T11:24:38;3.85;;;2.20;;
22336;SDS011;14992;50.844;4.418;2023-04-03T11:27:11;3.58;;;1.48;;
22336;SDS011;14992;50.844;4.418;2023-04-03T11:29:49;3.15;;;1.40;;
22336;SDS011;14992;50.844;4.418;2023-04-03T11:32:27;2.92;;;1.45;;
22336;SDS011;14992;50.844;4.418;2023-04-03T11:35:07;1.38;;;1.00;;
22336;SDS011;14992;50.844;4.418;2023-04-03T11:37:38;3.63;;;1.10;;
22336;SDS011;14992;50.844;4.418;2023-04-03T11:40:18;4.40;;;1.25;;
22336;SDS011;14992;50.844;4.418;2023-04-03T11:42:52;2.90;;;1.20;;
22336;SDS011;14992;50.844;4.418;2023-04-03T11:45:27;3.40;;;1.20;;
22336;SDS011;14992;50.844;4.418;2023-04-03T11:48:02;4.18;;;1.27;;
22336;SDS011;14992;50.844;4.418;2023-04-03T11:50:50;1.27;;;0.80;;
22336;SDS011;14992;50.844;4.418;2023-04-03T11:53:30;4.85;;;1.17;;
22336;SDS011;14992;50.844;4.418;2023-04-03T11:59:19;2.25;;;1.10;;
22336;SDS011;14992;50.844;4.418;2023-04-03T12:01:51;1.90;;;0.90;;
22336;SDS011;14992;50.844;4.418;2023-04-03T12:04:23;2.75;;;1.27;;
22336;SDS011;14992;50.844;4.418;2023-04-03T12:13:00;1.48;;;1.25;;
22336;SDS011;14992;50.844;4.418;2023-04-03T12:18:37;2.22;;;1.02;;
22336;SDS011;14992;50.844;4.418;2023-04-03T12:21:12;1.80;;;0.90;;
22336;SDS011;14992;50.844;4.418;2023-04-03T12:24:02;2.72;;;1.25;;
22336;SDS011;14992;50.844;4.418;2023-04-03T12:26:35;2.38;;;0.90;;
22336;SDS011;14992;50.844;4.418;2023-04-03T12:29:17;2.88;;;1.00;;
22336;SDS011;14992;50.844;4.418;2023-04-03T12:31:55;1.48;;;1.08;;
22336;SDS011;14992;50.844;4.418;2023-04-03T12:34:41;1.10;;;0.85;;
22336;SDS011;14992;50.844;4.418;2023-04-03T12:37:28;2.47;;;0.90;;
22336;SDS011;14992;50.844;4.418;2023-04-03T12:40:11;3.85;;;1.30;;
22336;SDS011;14992;50.844;4.418;2023-04-03T12:45:49;2.50;;;0.80;;
22336;SDS011;14992;50.844;4.418;2023-04-03T12:48:26;2.60;;;1.02;;
22336;SDS011;14992;50.844;4.418;2023-04-03T12:50:57;3.10;;;1.17;;
22336;SDS011;14992;50.844;4.418;2023-04-03T12:53:29;1.60;;;0.90;;
22336;SDS011;14992;50.844;4.418;2023-04-03T12:58:50;2.35;;;0.80;;
22336;SDS011;14992;50.844;4.418;2023-04-03T13:01:21;1.90;;;1.15;;
22336;SDS011;14992;50.844;4.418;2023-04-03T13:03:52;2.03;;;0.90;;
22336;SDS011;14992;50.844;4.418;2023-04-03T13:06:24;3.15;;;1.20;;
22336;SDS011;14992;50.844;4.418;2023-04-03T13:08:58;4.70;;;1.15;;
22336;SDS011;14992;50.844;4.418;2023-04-03T13:14:00;2.55;;;1.20;;
22336;SDS011;14992;50.844;4.418;2023-04-03T13:16:32;2.33;;;1.05;;
22336;SDS011;14992;50.844;4.418;2023-04-03T13:19:01;1.55;;;0.90;;
22336;SDS011;14992;50.844;4.418;2023-04-03T13:21:31;1.95;;;1.40;;
22336;SDS011;14992;50.844;4.418;2023-04-03T13:24:03;4.38;;;1.17;;
22336;SDS011;14992;50.844;4.418;2023-04-03T13:26:41;1.98;;;1.05;;
22336;SDS011;14992;50.844;4.418;2023-04-03T13:29:19;0.93;;;0.52;;
22336;SDS011;14992;50.844;4.418;2023-04-03T13:31:57;3.13;;;0.95;;
22336;SDS011;14992;50.844;4.418;2023-04-03T13:34:29;5.15;;;1.80;;
22336;SDS011;14992;50.844;4.418;2023-04-03T13:37:04;2.67;;;1.40;;
22336;SDS011;14992;50.844;4.418;2023-04-03T13:39:36;1.98;;;0.82;;
22336;SDS011;14992;50.844;4.418;2023-04-03T13:42:15;1.92;;;1.00;;
22336;SDS011;14992;50.844;4.418;2023-04-03T13:45:05;3.50;;;1.20;;
22336;SDS011;14992;50.844;4.418;2023-04-03T13:47:44;4.35;;;1.02;;
22336;SDS011;14992;50.844;4.418;2023-04-03T13:50:16;1.95;;;1.10;;
22336;SDS011;14992;50.844;4.418;2023-04-03T13:52:47;1.83;;;0.90;;
22336;SDS011;14992;50.844;4.418;2023-04-03T13:55:21;1.88;;;0.80;;
22336;SDS011;14992;50.844;4.418;2023-04-03T13:58:18;1.75;;;0.90;;
22336;SDS011;14992;50.844;4.418;2023-04-03T14:00:51;7.30;;;1.35;;
22336;SDS011;14992;50.844;4.418;2023-04-03T14:03:22;3.97;;;1.20;;
22336;SDS011;14992;50.844;4.418;2023-04-03T14:05:53;1.23;;;0.82;;
22336;SDS011;14992;50.844;4.418;2023-04-03T14:08:22;1.58;;;0.80;;
22336;SDS011;14992;50.844;4.418;2023-04-03T14:11:10;3.05;;;1.10;;
22336;SDS011;14992;50.844;4.418;2023-04-03T14:13:43;2.53;;;0.95;;
22336;SDS011;14992;50.844;4.418;2023-04-03T14:16:14;4.07;;;1.52;;
22336;SDS011;14992;50.844;4.418;2023-04-03T14:18:44;3.10;;;1.65;;
22336;SDS011;14992;50.844;4.418;2023-04-03T14:21:15;4.05;;;1.40;;
22336;SDS011;14992;50.844;4.418;2023-04-03T14:23:46;4.47;;;1.25;;
22336;SDS011;14992;50.844;4.418;2023-04-03T14:26:18;1.42;;;0.80;;
22336;SDS011;14992;50.844;4.418;2023-04-03T14:28:49;2.10;;;1.20;;
22336;SDS011;14992;50.844;4.418;2023-04-03T14:31:20;1.77;;;0.77;;
22336;SDS011;14992;50.844;4.418;2023-04-03T14:33:50;3.45;;;1.50;;
22336;SDS011;14992;50.844;4.418;2023-04-03T14:36:20;2.47;;;1.20;;
22336;SDS011;14992;50.844;4.418;2023-04-03T14:38:52;3.65;;;1.00;;
22336;SDS011;14992;50.844;4.418;2023-04-03T14:41:23;3.28;;;0.98;;
22336;SDS011;14992;50.844;4.418;2023-04-03T14:43:55;1.88;;;1.00;;
22336;SDS011;14992;50.844;4.418;2023-04-03T14:47:11;4.15;;;1.75;;
22336;SDS011;14992;50.844;4.418;2023-04-03T14:49:57;3.33;;;1.33;;
22336;SDS011;14992;50.844;4.418;2023-04-03T14:52:29;1.83;;;0.90;;
22336;SDS011;14992;50.844;4.418;2023-04-03T14:55:00;3.47;;;1.02;;
22336;SDS011;14992;50.844;4.418;2023-04-03T14:57:32;3.63;;;1.08;;
22336;SDS011;14992;50.844;4.418;2023-04-03T15:00:02;1.67;;;1.30;;
22336;SDS011;14992;50.844;4.418;2023-04-03T15:02:33;2.28;;;0.80;;
22336;SDS011;14992;50.844;4.418;2023-04-03T15:05:07;1.45;;;0.85;;
22336;SDS011;14992;50.844;4.418;2023-04-03T15:07:39;3.20;;;1.30;;
22336;SDS011;14992;50.844;4.418;2023-04-03T15:10:16;1.63;;;0.55;;
22336;SDS011;14992;50.844;4.418;2023-04-03T15:12:48;1.00;;;0.80;;
22336;SDS011;14992;50.844;4.418;2023-04-03T15:15:18;1.45;;;0.80;;
22336;SDS011;14992;50.844;4.418;2023-04-03T15:17:50;1.40;;;0.80;;
22336;SDS011;14992;50.844;4.418;2023-04-03T15:20:23;1.75;;;0.90;;
22336;SDS011;14992;50.844;4.418;2023-04-03T15:22:53;3.20;;;0.90;;
22336;SDS011;14992;50.844;4.418;2023-04-03T15:25:23;3.42;;;1.20;;
22336;SDS011;14992;50.844;4.418;2023-04-03T15:27:55;1.67;;;1.00;;
22336;SDS011;14992;50.844;4.418;2023-04-03T15:30:25;2.13;;;0.98;;
22336;SDS011;14992;50.844;4.418;2023-04-03T15:32:54;2.03;;;0.90;;
22336;SDS011;14992;50.844;4.418;2023-04-03T15:35:23;1.60;;;0.95;;
22336;SDS011;14992;50.844;4.418;2023-04-03T15:37:52;2.80;;;0.80;;
22336;SDS011;14992;50.844;4.418;2023-04-03T15:40:21;2.22;;;1.10;;
22336;SDS011;14992;50.844;4.418;2023-04-03T15:42:50;2.33;;;1.17;;
22336;SDS011;14992;50.844;4.418;2023-04-03T15:45:21;0.93;;;0.80;;
22336;SDS011;14992;50.844;4.418;2023-04-03T15:47:50;1.65;;;0.70;;
22336;SDS011;14992;50.844;4.418;2023-04-03T15:50:19;2.22;;;1.20;;
22336;SDS011;14992;50.844;4.418;2023-04-03T15:52:51;3.55;;;1.33;;
22336;SDS011;14992;50.844;4.418;2023-04-03T15:55:22;2.47;;;1.05;;